sensor_id;sensor_type;location;lat;lon;timestamp;P1;durP1;ratioP1;P2;durP2;ratioP2
72479;SDS011;60503;43.540;-5.510;2023-04-03T09:43:28;5.28;;;1.20;;
72479;SDS011;60503;43.540;-5.510;2023-04-03T09:45:55;6.80;;;1.20;;
72479;SDS011;60503;43.540;-5.510;2023-04-03T09:48:25;4.20;;;1.02;;
72479;SDS011;60503;43.540;-5.510;2023-04-03T09:56:02;7.50;;;1.23;;
72479;SDS011;60503;43.540;-5.510;2023-04-03T09:58:31;7.50;;;1.25;;
72479;SDS011;60503;43.540;-5.510;2023-04-03T10:00:59;4.43;;;1.20;;
72479;SDS011;60503;43.540;-5.510;2023-04-03T10:03:35;8.73;;;1.45;;
72479;SDS011;60503;43.540;-5.510;2023-04-03T10:06:03;9.50;;;1.30;;
72479;SDS011;60503;43.540;-5.510;2023-04-03T10:08:30;6.80;;;1.27;;
72479;SDS011;60503;43.540;-5.510;2023-04-03T10:11:16;10.98;;;1.35;;
72479;SDS011;60503;43.540;-5.510;2023-04-03T10:13:57;9.68;;;1.45;;
72479;SDS011;60503;43.540;-5.510;2023-04-03T10:19:25;6.63;;;1.30;;
72479;SDS011;60503;43.540;-5.510;2023-04-03T10:21:59;9.32;;;1.40;;
72479;SDS011;60503;43.540;-5.510;2023-04-03T10:24:36;3.83;;;1.13;;
72479;SDS011;60503;43.540;-5.510;2023-04-03T10:27:18;4.63;;;1.08;;
72479;SDS011;60503;43.540;-5.510;2023-04-03T10:32:54;9.50;;;1.30;;
72479;SDS011;60503;43.540;-5.510;2023-04-03T10:43:36;7.82;;;1.35;;
72479;SDS011;60503;43.540;-5.510;2023-04-03T10:46:15;7.85;;;1.15;;
72479;SDS011;60503;43.540;-5.510;2023-04-03T10:48:54;4.78;;;1.20;;
72479;SDS011;60503;43.540;-5.510;2023-04-03T10:51:36;6.93;;;1.27;;
72479;SDS011;60503;43.540;-5.510;2023-04-03T10:56:37;8.10;;;1.50;;
72479;SDS011;60503;43.540;-5.510;2023-04-03T11:01:44;9.02;;;1.00;;
72479;SDS011;60503;43.540;-5.510;2023-04-03T11:04:12;6.60;;;1.25;;
72479;SDS011;60503;43.540;-5.510;2023-04-03T11:06:47;14.43;;;1.67;;
72479;SDS011;60503;43.540;-5.510;2023-04-03T11:09:26;5.78;;;1.70;;
72479;SDS011;60503;43.540;-5.510;2023-04-03T11:12:06;6.65;;;1.10;;
72479;SDS011;60503;43.540;-5.510;2023-04-03T11:14:38;5.32;;;1.08;;
72479;SDS011;60503;43.540;-5.510;2023-04-03T11:17:14;10.05;;;1.58;;
72479;SDS011;60503;43.540;-5.510;2023-04-03T11:22:39;5.53;;;1.30;;
72479;SDS011;60503;43.540;-5.510;2023-04-03T11:27:50;6.30;;;1.00;;
72479;SDS011;60503;43.540;-5.510;2023-04-03T11:30:33;6.18;;;1.08;;
72479;SDS011;60503;43.540;-5.510;2023-04-03T11:36:00;5.55;;;1.08;;
72479;SDS011;60503;43.540;-5.510;2023-04-03T11:38:36;5.53;;;1.30;;
72479;SDS011;60503;43.540;-5.510;2023-04-03T11:41:06;4.75;;;1.08;;
72479;SDS011;60503;43.540;-5.510;2023-04-03T11:43:33;6.70;;;1.10;;
72479;SDS011;60503;43.540;-5.510;2023-04-03T11:46:05;11.20;;;1.55;;
72479;SDS011;60503;43.540;-5.510;2023-04-03T11:53:38;8.65;;;1.52;;
72479;SDS011;60503;43.540;-5.510;2023-04-03T12:01:49;6.43;;;1.00;;
72479;SDS011;60503;43.540;-5.510;2023-04-03T12:04:16;7.63;;;1.30;;
72479;SDS011;60503;43.540;-5.510;2023-04-03T12:06:49;5.22;;;1.10;;
72479;SDS011;60503;43.540;-5.510;2023-04-03T12:18:44;12.95;;;1.55;;
72479;SDS011;60503;43.540;-5.510;2023-04-03T12:35:14;7.45;;;0.98;;
72479;SDS011;60503;43.540;-5.510;2023-04-03T12:42:04;3.88;;;0.90;;
72479;SDS011;60503;43.540;-5.510;2023-04-03T12:46:37;3.78;;;1.00;;
72479;SDS011;60503;43.540;-5.510;2023-04-03T12:49:12;6.53;;;1.45;;
72479;SDS011;60503;43.540;-5.510;2023-04-03T12:51:57;3.15;;;0.90;;
72479;SDS011;60503;43.540;-5.510;2023-04-03T12:54:30;7.07;;;1.08;;
72479;SDS011;60503;43.540;-5.510;2023-04-03T12:57:27;8.70;;;1.30;;
72479;SDS011;60503;43.540;-5.510;2023-04-03T12:59:53;8.90;;;1.17;;
72479;SDS011;60503;43.540;-5.510;2023-04-03T13:02:26;12.07;;;1.08;;
72479;SDS011;60503;43.540;-5.510;2023-04-03T13:04:57;7.88;;;1.35;;
72479;SDS011;60503;43.540;-5.510;2023-04-03T13:09:59;3.03;;;1.13;;
72479;SDS011;60503;43.540;-5.510;2023-04-03T13:12:28;8.20;;;1.50;;
72479;SDS011;60503;43.540;-5.510;2023-04-03T13:14:55;8.77;;;1.15;;
72479;SDS011;60503;43.540;-5.510;2023-04-03T13:17:23;4.72;;;1.20;;
72479;SDS011;60503;43.540;-5.510;2023-04-03T13:19:49;10.38;;;1.13;;
72479;SDS011;60503;43.540;-5.510;2023-04-03T13:22:30;10.90;;;2.15;;
72479;SDS011;60503;43.540;-5.510;2023-04-03T13:25:04;6.28;;;1.10;;
72479;SDS011;60503;43.540;-5.510;2023-04-03T13:27:31;6.53;;;1.33;;
72479;SDS011;60503;43.540;-5.510;2023-04-03T13:29:57;10.32;;;1.13;;
72479;SDS011;60503;43.540;-5.510;2023-04-03T13:32:26;5.30;;;1.30;;
72479;SDS011;60503;43.540;-5.510;2023-04-03T13:34:54;5.25;;;0.93;;
72479;SDS011;60503;43.540;-5.510;2023-04-03T13:37:29;5.97;;;1.60;;
72479;SDS011;60503;43.540;-5.510;2023-04-03T13:40:17;6.00;;;1.00;;
72479;SDS011;60503;43.540;-5.510;2023-04-03T13:42:42;3.38;;;0.85;;
72479;SDS011;60503;43.540;-5.510;2023-04-03T13:45:16;9.48;;;1.48;;
72479;SDS011;60503;43.540;-5.510;2023-04-03T13:48:40;5.72;;;1.52;;
72479;SDS011;60503;43.540;-5.510;2023-04-03T13:50:51;9.82;;;1.00;;
72479;SDS011;60503;43.540;-5.510;2023-04-03T13:53:29;12.57;;;1.58;;
72479;SDS011;60503;43.540;-5.510;2023-04-03T13:58:31;6.88;;;1.20;;
72479;SDS011;60503;43.540;-5.510;2023-04-03T14:01:06;5.53;;;1.20;;
72479;SDS011;60503;43.540;-5.510;2023-04-03T14:03:44;6.28;;;1.20;;
72479;SDS011;60503;43.540;-5.510;2023-04-03T14:08:50;6.47;;;1.45;;
72479;SDS011;60503;43.540;-5.510;2023-04-03T14:18:15;11.65;;;1.35;;
72479;SDS011;60503;43.540;-5.510;2023-04-03T14:20:43;6.28;;;1.48;;
72479;SDS011;60503;43.540;-5.510;2023-04-03T14:23:12;7.53;;;2.00;;
72479;SDS011;60503;43.540;-5.510;2023-04-03T14:25:38;6.13;;;1.30;;
72479;SDS011;60503;43.540;-5.510;2023-04-03T14:28:21;6.63;;;1.20;;
72479;SDS011;60503;43.540;-5.510;2023-04-03T14:30:49;5.70;;;1.00;;
72479;SDS011;60503;43.540;-5.510;2023-04-03T14:33:16;7.75;;;1.20;;
72479;SDS011;60503;43.540;-5.510;2023-04-03T14:35:45;5.60;;;1.40;;
72479;SDS011;60503;43.540;-5.510;2023-04-03T14:38:21;7.35;;;1.38;;
72479;SDS011;60503;43.540;-5.510;2023-04-03T14:40:48;2.28;;;0.90;;
72479;SDS011;60503;43.540;-5.510;2023-04-03T14:43:13;3.72;;;1.25;;
72479;SDS011;60503;43.540;-5.510;2023-04-03T14:45:40;4.45;;;1.20;;
72479;SDS011;60503;43.540;-5.510;2023-04-03T14:48:06;8.63;;;1.27;;
72479;SDS011;60503;43.540;-5.510;2023-04-03T14:50:36;5.55;;;1.20;;
72479;SDS011;60503;43.540;-5.510;2023-04-03T14:53:02;8.00;;;1.23;;
72479;SDS011;60503;43.540;-5.510;2023-04-03T14:55:27;3.60;;;0.93;;
72479;SDS011;60503;43.540;-5.510;2023-04-03T14:57:53;3.80;;;1.00;;
72479;SDS011;60503;43.540;-5.510;2023-04-03T15:00:20;4.43;;;1.17;;
72479;SDS011;60503;43.540;-5.510;2023-04-03T15:02:47;3.20;;;1.20;;
72479;SDS011;60503;43.540;-5.510;2023-04-03T15:05:13;10.07;;;1.75;;
72479;SDS011;60503;43.540;-5.510;2023-04-03T15:07:52;3.78;;;1.00;;
72479;SDS011;60503;43.540;-5.510;2023-04-03T15:10:21;7.18;;;1.20;;
72479;SDS011;60503;43.540;-5.510;2023-04-03T15:12:49;8.70;;;1.27;;
72479;SDS011;60503;43.540;-5.510;2023-04-03T15:15:15;4.55;;;1.25;;
72479;SDS011;60503;43.540;-5.510;2023-04-03T15:17:42;7.95;;;1.35;;
72479;SDS011;60503;43.540;-5.510;2023-04-03T15:20:15;11.98;;;1.33;;
72479;SDS011;60503;43.540;-5.510;2023-04-03T15:22:46;5.45;;;1.33;;
72479;SDS011;60503;43.540;-5.510;2023-04-03T15:25:12;7.97;;;1.45;;
72479;SDS011;60503;43.540;-5.510;2023-04-03T15:27:38;7.13;;;1.13;;
72479;SDS011;60503;43.540;-5.510;2023-04-03T15:30:05;8.43;;;1.27;;
72479;SDS011;60503;43.540;-5.510;2023-04-03T15:32:31;8.95;;;1.40;;
72479;SDS011;60503;43.540;-5.510;2023-04-03T15:34:58;6.00;;;1.10;;
72479;SDS011;60503;43.540;-5.510;2023-04-03T15:37:24;7.00;;;1.02;;
72479;SDS011;60503;43.540;-5.510;2023-04-03T15:39:50;8.82;;;1.63;;
72479;SDS011;60503;43.540;-5.510;2023-04-03T15:42:15;9.68;;;1.25;;
72479;SDS011;60503;43.540;-5.510;2023-04-03T15:44:41;6.25;;;1.42;;
72479;SDS011;60503;43.540;-5.510;2023-04-03T15:47:07;4.18;;;1.10;;
72479;SDS011;60503;43.540;-5.510;2023-04-03T15:49:33;4.53;;;1.17;;
72479;SDS011;60503;43.540;-5.510;2023-04-03T15:51:59;2.72;;;1.05;;
72479;SDS011;60503;43.540;-5.510;2023-04-03T15:54:25;4.88;;;1.10;;
72479;SDS011;60503;43.540;-5.510;2023-04-03T15:56:51;5.28;;;1.30;;
72479;SDS011;60503;43.540;-5.510;2023-04-03T15:59:18;6.88;;;1.17;;
72479;SDS011;60503;43.540;-5.510;2023-04-03T16:01:44;10.15;;;1.48;;
72479;SDS011;60503;43.540;-5.510;2023-04-03T16:04:10;4.53;;;1.17;;
72479;SDS011;60503;43.540;-5.510;2023-04-03T16:06:36;6.47;;;1.38;;
72479;SDS011;60503;43.540;-5.510;2023-04-03T16:09:02;4.75;;;1.50;;
72479;SDS011;60503;43.540;-5.510;2023-04-03T16:11:29;5.85;;;1.38;;
72479;SDS011;60503;43.540;-5.510;2023-04-03T16:13:55;5.32;;;1.00;;
72479;SDS011;60503;43.540;-5.510;2023-04-03T16:16:21;3.58;;;1.20;;
72479;SDS011;60503;43.540;-5.510;2023-04-03T16:18:47;6.53;;;1.33;;
72479;SDS011;60503;43.540;-5.510;2023-04-03T16:21:13;6.90;;;1.40;;
72479;SDS011;60503;43.540;-5.510;2023-04-03T16:23:41;9.43;;;1.30;;
72479;SDS011;60503;43.540;-5.510;2023-04-03T16:26:06;8.93;;;1.27;;
72479;SDS011;60503;43.540;-5.510;2023-04-03T16:28:32;8.48;;;1.13;;
72479;SDS011;60503;43.540;-5.510;2023-04-03T16:30:59;5.07;;;1.27;;
72479;SDS011;60503;43.540;-5.510;2023-04-03T16:33:25;10.65;;;1.60;;
72479;SDS011;60503;43.540;-5.510;2023-04-03T16:35:51;7.18;;;0.90;;
72479;SDS011;60503;43.540;-5.510;2023-04-03T16:38:17;9.85;;;1.25;;
72479;SDS011;60503;43.540;-5.510;2023-04-03T16:40:44;11.80;;;1.50;;
72479;SDS011;60503;43.540;-5.510;2023-04-03T16:43:10;6.78;;;1.40;;
72479;SDS011;60503;43.540;-5.510;2023-04-03T16:45:36;9.18;;;1.70;;
72479;SDS011;60503;43.540;-5.510;2023-04-03T16:48:01;6.00;;;1.42;;
72479;SDS011;60503;43.540;-5.510;2023-04-03T16:50:27;8.35;;;1.25;;
72479;SDS011;60503;43.540;-5.510;2023-04-03T16:52:53;6.35;;;1.38;;
72479;SDS011;60503;43.540;-5.510;2023-04-03T16:55:18;7.53;;;1.48;;
72479;SDS011;60503;43.540;-5.510;2023-04-03T16:57:45;7.65;;;1.30;;
72479;SDS011;60503;43.540;-5.510;2023-04-03T17:00:11;7.38;;;1.33;;
72479;SDS011;60503;43.540;-5.510;2023-04-03T17:02:37;5.72;;;1.48;;
72479;SDS011;60503;43.540;-5.510;2023-04-03T17:05:03;7.63;;;1.58;;
72479;SDS011;60503;43.540;-5.510;2023-04-03T17:07:29;10.48;;;2.05;;
72479;SDS011;60503;43.540;-5.510;2023-04-03T17:09:55;3.95;;;1.10;;
72479;SDS011;60503;43.540;-5.510;2023-04-03T17:12:21;8.73;;;1.30;;
72479;SDS011;60503;43.540;-5.510;2023-04-03T17:14:47;6.70;;;1.38;;
72479;SDS011;60503;43.540;-5.510;2023-04-03T17:17:17;4.53;;;1.40;;
72479;SDS011;60503;43.540;-5.510;2023-04-03T17:19:44;7.55;;;1.35;;
72479;SDS011;60503;43.540;-5.510;2023-04-03T17:22:10;7.70;;;1.75;;
72479;SDS011;60503;43.540;-5.510;2023-04-03T17:24:35;6.45;;;1.38;;
72479;SDS011;60503;43.540;-5.510;2023-04-03T17:27:02;9.10;;;1.52;;
72479;SDS011;60503;43.540;-5.510;2023-04-03T17:32:49;12.80;;;1.42;;
72479;SDS011;60503;43.540;-5.510;2023-04-03T17:35:17;5.60;;;1.13;;
72479;SDS011;60503;43.540;-5.510;2023-04-03T17:37:43;6.30;;;1.55;;
72479;SDS011;60503;43.540;-5.510;2023-04-03T17:40:08;10.20;;;1.67;;
72479;SDS011;60503;43.540;-5.510;2023-04-03T17:42:38;6.53;;;1.35;;
72479;SDS011;60503;43.540;-5.510;2023-04-03T17:45:03;14.00;;;1.63;;
72479;SDS011;60503;43.540;-5.510;2023-04-03T17:47:29;8.98;;;1.40;;
72479;SDS011;60503;43.540;-5.510;2023-04-03T17:53:17;9.52;;;2.08;;
72479;SDS011;60503;43.540;-5.510;2023-04-03T17:55:42;5.53;;;1.52;;
72479;SDS011;60503;43.540;-5.510;2023-04-03T17:58:11;8.93;;;2.05;;
72479;SDS011;60503;43.540;-5.510;2023-04-03T18:00:36;6.90;;;1.20;;
72479;SDS011;60503;43.540;-5.510;2023-04-03T18:03:02;10.38;;;1.65;;
72479;SDS011;60503;43.540;-5.510;2023-04-03T18:05:28;5.63;;;1.40;;
72479;SDS011;60503;43.540;-5.510;2023-04-03T18:07:54;8.80;;;1.73;;
72479;SDS011;60503;43.540;-5.510;2023-04-03T18:10:21;9.55;;;1.80;;
72479;SDS011;60503;43.540;-5.510;2023-04-03T18:12:46;9.95;;;1.40;;
72479;SDS011;60503;43.540;-5.510;2023-04-03T18:15:12;9.23;;;1.48;;
72479;SDS011;60503;43.540;-5.510;2023-04-03T18:17:37;4.00;;;1.20;;
72479;SDS011;60503;43.540;-5.510;2023-04-03T18:20:03;6.15;;;1.25;;
72479;SDS011;60503;43.540;-5.510;2023-04-03T18:22:30;8.85;;;1.77;;
72479;SDS011;60503;43.540;-5.510;2023-04-03T18:24:56;10.60;;;1.80;;
72479;SDS011;60503;43.540;-5.510;2023-04-03T18:27:23;8.75;;;1.40;;
72479;SDS011;60503;43.540;-5.510;2023-04-03T18:29:58;8.43;;;1.65;;
72479;SDS011;60503;43.540;-5.510;2023-04-03T18:32:26;7.47;;;1.92;;
72479;SDS011;60503;43.540;-5.510;2023-04-03T18:34:54;10.85;;;1.83;;
72479;SDS011;60503;43.540;-5.510;2023-04-03T18:37:20;8.00;;;1.60;;
72479;SDS011;60503;43.540;-5.510;2023-04-03T18:39:47;9.45;;;1.80;;
72479;SDS011;60503;43.540;-5.510;2023-04-03T18:42:14;6.03;;;1.33;;
72479;SDS011;60503;43.540;-5.510;2023-04-03T18:44:42;10.23;;;1.88;;
72479;SDS011;60503;43.540;-5.510;2023-04-03T18:47:09;7.60;;;1.92;;
72479;SDS011;60503;43.540;-5.510;2023-04-03T18:49:35;8.70;;;1.63;;
72479;SDS011;60503;43.540;-5.510;2023-04-03T18:52:02;5.43;;;1.27;;
72479;SDS011;60503;43.540;-5.510;2023-04-03T18:57:50;8.32;;;1.52;;
72479;SDS011;60503;43.540;-5.510;2023-04-03T19:00:16;12.23;;;2.08;;
72479;SDS011;60503;43.540;-5.510;2023-04-03T19:02:42;7.50;;;1.50;;
72479;SDS011;60503;43.540;-5.510;2023-04-03T19:05:10;7.85;;;2.00;;
72479;SDS011;60503;43.540;-5.510;2023-04-03T19:07:37;6.65;;;1.73;;
72479;SDS011;60503;43.540;-5.510;2023-04-03T19:10:03;5.82;;;1.67;;
72479;SDS011;60503;43.540;-5.510;2023-04-03T19:12:29;8.57;;;1.65;;
72479;SDS011;60503;43.540;-5.510;2023-04-03T19:14:54;9.02;;;1.85;;
72479;SDS011;60503;43.540;-5.510;2023-04-03T19:17:20;12.30;;;2.33;;
72479;SDS011;60503;43.540;-5.510;2023-04-03T19:19:46;3.80;;;1.45;;
72479;SDS011;60503;43.540;-5.510;2023-04-03T19:22:21;8.15;;;1.98;;
72479;SDS011;60503;43.540;-5.510;2023-04-03T19:28:26;11.27;;;1.80;;
72479;SDS011;60503;43.540;-5.510;2023-04-03T19:30:52;8.55;;;1.77;;
72479;SDS011;60503;43.540;-5.510;2023-04-03T19:33:20;11.60;;;1.90;;
72479;SDS011;60503;43.540;-5.510;2023-04-03T19:35:46;7.45;;;2.20;;
72479;SDS011;60503;43.540;-5.510;2023-04-03T19:38:14;10.60;;;2.28;;
72479;SDS011;60503;43.540;-5.510;2023-04-03T19:40:40;13.55;;;2.33;;
72479;SDS011;60503;43.540;-5.510;2023-04-03T19:43:11;8.15;;;2.05;;
72479;SDS011;60503;43.540;-5.510;2023-04-03T19:45:38;10.45;;;2.45;;
72479;SDS011;60503;43.540;-5.510;2023-04-03T19:48:04;6.50;;;1.83;;
72479;SDS011;60503;43.540;-5.510;2023-04-03T19:50:31;10.57;;;2.30;;
72479;SDS011;60503;43.540;-5.510;2023-04-03T19:52:57;13.00;;;2.72;;
72479;SDS011;60503;43.540;-5.510;2023-04-03T19:58:46;14.05;;;2.42;;
72479;SDS011;60503;43.540;-5.510;2023-04-03T20:04:39;11.15;;;2.30;;
72479;SDS011;60503;43.540;-5.510;2023-04-03T20:07:05;11.38;;;2.60;;
72479;SDS011;60503;43.540;-5.510;2023-04-03T20:09:33;15.00;;;2.90;;
72479;SDS011;60503;43.540;-5.510;2023-04-03T20:12:00;12.50;;;3.03;;
72479;SDS011;60503;43.540;-5.510;2023-04-03T20:14:26;10.15;;;2.65;;
72479;SDS011;60503;43.540;-5.510;2023-04-03T20:16:52;12.98;;;2.50;;
72479;SDS011;60503;43.540;-5.510;2023-04-03T20:19:18;11.13;;;2.35;;
72479;SDS011;60503;43.540;-5.510;2023-04-03T20:21:45;8.52;;;2.75;;
72479;SDS011;60503;43.540;-5.510;2023-04-03T20:24:11;16.13;;;2.95;;
72479;SDS011;60503;43.540;-5.510;2023-04-03T20:26:38;9.05;;;2.40;;
72479;SDS011;60503;43.540;-5.510;2023-04-03T20:29:07;8.32;;;2.13;;
72479;SDS011;60503;43.540;-5.510;2023-04-03T20:31:33;13.98;;;2.40;;
72479;SDS011;60503;43.540;-5.510;2023-04-03T20:33:59;9.07;;;2.33;;
72479;SDS011;60503;43.540;-5.510;2023-04-03T20:36:26;17.08;;;2.55;;
72479;SDS011;60503;43.540;-5.510;2023-04-03T20:38:52;11.90;;;2.70;;
72479;SDS011;60503;43.540;-5.510;2023-04-03T20:41:18;11.25;;;2.53;;
72479;SDS011;60503;43.540;-5.510;2023-04-03T20:43:44;7.32;;;2.80;;
72479;SDS011;60503;43.540;-5.510;2023-04-03T20:46:11;14.30;;;2.13;;
72479;SDS011;60503;43.540;-5.510;2023-04-03T20:48:38;12.25;;;2.72;;
72479;SDS011;60503;43.540;-5.510;2023-04-03T20:51:11;9.98;;;2.95;;
72479;SDS011;60503;43.540;-5.510;2023-04-03T20:57:00;10.85;;;2.30;;
72479;SDS011;60503;43.540;-5.510;2023-04-03T20:59:26;11.43;;;2.25;;
72479;SDS011;60503;43.540;-5.510;2023-04-03T21:01:52;10.30;;;2.70;;
72479;SDS011;60503;43.540;-5.510;2023-04-03T21:21:02;10.15;;;1.65;;
72479;SDS011;60503;43.540;-5.510;2023-04-03T21:23:29;12.27;;;2.20;;
72479;SDS011;60503;43.540;-5.510;2023-04-03T21:25:55;9.05;;;2.00;;
72479;SDS011;60503;43.540;-5.510;2023-04-03T21:28:22;18.67;;;2.05;;
72479;SDS011;60503;43.540;-5.510;2023-04-03T21:30:49;11.35;;;1.98;;
72479;SDS011;60503;43.540;-5.510;2023-04-03T21:33:14;8.95;;;1.77;;
72479;SDS011;60503;43.540;-5.510;2023-04-03T21:35:40;13.73;;;2.25;;
72479;SDS011;60503;43.540;-5.510;2023-04-03T21:38:06;12.18;;;2.13;;
72479;SDS011;60503;43.540;-5.510;2023-04-03T21:40:31;9.32;;;1.85;;
72479;SDS011;60503;43.540;-5.510;2023-04-03T21:42:57;10.35;;;2.10;;
72479;SDS011;60503;43.540;-5.510;2023-04-03T21:45:23;10.40;;;1.85;;
72479;SDS011;60503;43.540;-5.510;2023-04-03T21:47:48;12.15;;;1.95;;
72479;SDS011;60503;43.540;-5.510;2023-04-03T21:50:15;12.32;;;2.42;;
72479;SDS011;60503;43.540;-5.510;2023-04-03T21:52:42;13.85;;;1.77;;
72479;SDS011;60503;43.540;-5.510;2023-04-03T21:55:08;14.15;;;2.10;;
72479;SDS011;60503;43.540;-5.510;2023-04-03T21:57:34;6.28;;;1.90;;
72479;SDS011;60503;43.540;-5.510;2023-04-03T22:00:00;7.60;;;1.90;;
72479;SDS011;60503;43.540;-5.510;2023-04-03T22:02:26;10.35;;;2.10;;
72479;SDS011;60503;43.540;-5.510;2023-04-03T22:04:51;13.93;;;2.22;;
72479;SDS011;60503;43.540;-5.510;2023-04-03T22:07:18;11.27;;;2.30;;
72479;SDS011;60503;43.540;-5.510;2023-04-03T22:09:44;4.90;;;1.40;;
72479;SDS011;60503;43.540;-5.510;2023-04-03T22:12:09;10.38;;;2.17;;
72479;SDS011;60503;43.540;-5.510;2023-04-03T22:14:36;12.48;;;1.92;;
72479;SDS011;60503;43.540;-5.510;2023-04-03T22:17:03;12.65;;;2.13;;
72479;SDS011;60503;43.540;-5.510;2023-04-03T22:19:29;6.93;;;1.75;;
72479;SDS011;60503;43.540;-5.510;2023-04-03T22:21:55;7.45;;;1.63;;
72479;SDS011;60503;43.540;-5.510;2023-04-03T22:24:21;8.82;;;1.73;;
72479;SDS011;60503;43.540;-5.510;2023-04-03T22:26:47;4.72;;;1.58;;
72479;SDS011;60503;43.540;-5.510;2023-04-03T22:29:13;9.43;;;1.95;;
72479;SDS011;60503;43.540;-5.510;2023-04-03T22:31:39;13.43;;;1.90;;
72479;SDS011;60503;43.540;-5.510;2023-04-03T22:34:08;7.30;;;2.38;;
72479;SDS011;60503;43.540;-5.510;2023-04-03T22:36:34;6.93;;;1.70;;
72479;SDS011;60503;43.540;-5.510;2023-04-03T22:39:00;11.48;;;2.22;;
72479;SDS011;60503;43.540;-5.510;2023-04-03T22:41:28;11.48;;;1.63;;
72479;SDS011;60503;43.540;-5.510;2023-04-03T22:43:55;5.75;;;1.50;;
72479;SDS011;60503;43.540;-5.510;2023-04-03T22:46:21;8.43;;;2.10;;
72479;SDS011;60503;43.540;-5.510;2023-04-03T22:48:46;16.83;;;2.08;;
72479;SDS011;60503;43.540;-5.510;2023-04-03T22:51:12;11.57;;;2.00;;
72479;SDS011;60503;43.540;-5.510;2023-04-03T22:53:38;9.82;;;2.00;;
72479;SDS011;60503;43.540;-5.510;2023-04-03T22:56:04;15.13;;;2.05;;
72479;SDS011;60503;43.540;-5.510;2023-04-03T22:58:35;14.35;;;1.73;;
72479;SDS011;60503;43.540;-5.510;2023-04-03T23:01:11;12.23;;;2.33;;
72479;SDS011;60503;43.540;-5.510;2023-04-03T23:03:39;10.15;;;1.70;;
72479;SDS011;60503;43.540;-5.510;2023-04-03T23:06:06;7.82;;;1.90;;
72479;SDS011;60503;43.540;-5.510;2023-04-03T23:08:33;8.55;;;1.52;;
72479;SDS011;60503;43.540;-5.510;2023-04-03T23:10:59;14.70;;;2.13;;
72479;SDS011;60503;43.540;-5.510;2023-04-03T23:13:25;8.05;;;1.63;;
72479;SDS011;60503;43.540;-5.510;2023-04-03T23:15:55;11.60;;;1.63;;
72479;SDS011;60503;43.540;-5.510;2023-04-03T23:18:22;11.02;;;1.63;;
72479;SDS011;60503;43.540;-5.510;2023-04-03T23:20:48;17.63;;;1.80;;
72479;SDS011;60503;43.540;-5.510;2023-04-03T23:23:21;11.27;;;2.25;;
72479;SDS011;60503;43.540;-5.510;2023-04-03T23:26:05;13.73;;;1.70;;
72479;SDS011;60503;43.540;-5.510;2023-04-03T23:28:33;10.57;;;2.20;;
72479;SDS011;60503;43.540;-5.510;2023-04-03T23:30:59;8.00;;;1.77;;
72479;SDS011;60503;43.540;-5.510;2023-04-03T23:33:26;7.53;;;1.48;;
72479;SDS011;60503;43.540;-5.510;2023-04-03T23:35:51;11.68;;;2.25;;
72479;SDS011;60503;43.540;-5.510;2023-04-03T23:38:17;10.63;;;2.00;;
72479;SDS011;60503;43.540;-5.510;2023-04-03T23:40:43;13.80;;;2.25;;
72479;SDS011;60503;43.540;-5.510;2023-04-03T23:43:10;13.68;;;2.22;;
72479;SDS011;60503;43.540;-5.510;2023-04-03T23:45:45;10.27;;;1.80;;
72479;SDS011;60503;43.540;-5.510;2023-04-03T23:48:11;10.90;;;1.90;;
72479;SDS011;60503;43.540;-5.510;2023-04-03T23:50:37;7.28;;;1.60;;
72479;SDS011;60503;43.540;-5.510;2023-04-03T23:53:02;9.40;;;1.50;;
72479;SDS011;60503;43.540;-5.510;2023-04-03T23:55:28;6.85;;;1.73;;
72479;SDS011;60503;43.540;-5.510;2023-04-03T23:57:54;12.50;;;2.13;;
